Time;durP1;ratioP1;P1;durP2;ratioP2;P2;SDS_P1;SDS_P2;PMS_P1;PMS_P2;Temp;Humidity;BMP_temperature;BMP_pressure;BME280_temperature;BME280_humidity;BME280_pressure;Samples;Min_cycle;Max_cycle;Signal;HPM_P1;HPM_P2
2022/07/21 00:01:31;;;;;;;15.15;9.20;;;21.40;99.10;;;;;;5012018;28;19921;-45
2022/07/21 00:03:57;;;;;;;;;;;21.30;98.50;;;;;;5011438;28;20479;-50
2022/07/21 00:06:22;;;;;;;14.07;9.23;;;21.30;99.10;;;;;;5012396;28;19940;-48
2022/07/21 00:08:48;;;;;;;;;;;21.40;98.80;;;;;;5011816;28;20470;-48
2022/07/21 00:11:14;;;;;;;11.75;8.13;;;21.40;99.20;;;;;;5011234;28;20422;-48
2022/07/21 00:13:39;;;;;;;;;;;21.40;98.70;;;;;;5010792;28;20424;-48
2022/07/21 00:16:05;;;;;;;10.55;8.90;;;21.40;99.10;;;;;;5016691;28;19924;-48
2022/07/21 00:18:32;;;;;;;13.45;8.80;;;21.30;98.90;;;;;;5030830;28;20087;-45
2022/07/21 00:20:58;;;;;;;;;;;21.20;98.90;;;;;;5031450;28;20112;-48
2022/07/21 00:23:24;;;;;;;15.68;9.20;;;21.20;99.40;;;;;;5030552;28;20032;-48
2022/07/21 00:25:51;;;;;;;16.77;10.52;;;21.00;99.10;;;;;;5029820;28;20494;-45
2022/07/21 00:28:17;;;;;;;13.68;9.90;;;21.00;99.20;;;;;;5010659;28;20037;-49
2022/07/21 00:30:42;;;;;;;;;;;20.90;99.40;;;;;;5042641;28;20084;-50
2022/07/21 00:33:08;;;;;;;16.83;10.40;;;20.90;99.90;;;;;;5011406;28;19917;-46
2022/07/21 00:35:33;;;;;;;;;;;20.90;99.70;;;;;;5012286;28;20069;-48
2022/07/21 00:37:59;;;;;;;15.65;10.50;;;20.90;99.90;;;;;;5013587;28;19928;-49
2022/07/21 00:40:25;;;;;;;;;;;20.80;99.90;;;;;;5011091;28;20045;-49
2022/07/21 00:42:50;;;;;;;14.85;10.82;;;20.70;99.90;;;;;;5018613;28;19924;-45
2022/07/21 00:45:16;;;;;;;;;;;20.70;99.90;;;;;;5031113;28;20120;-45
2022/07/21 00:47:42;;;;;;;15.82;11.25;;;20.70;99.90;;;;;;5028359;28;19924;-49
2022/07/21 00:50:17;;;;;;;12.98;11.43;;;20.60;99.90;;;;;;5030288;28;20037;-50
2022/07/21 00:52:44;;;;;;;18.75;11.15;;;20.60;99.90;;;;;;5030021;28;20053;-47
2022/07/21 00:55:15;;;;;;;14.07;11.07;;;20.60;99.90;;;;;;5030236;28;20060;-48
2022/07/21 00:57:42;;;;;;;13.57;10.25;;;20.60;99.90;;;;;;5027235;28;20060;-45
2022/07/21 01:00:12;;;;;;;15.93;11.30;;;20.60;99.90;;;;;;5010576;28;20038;-50
2022/07/21 01:02:38;;;;;;;12.18;10.65;;;20.60;99.90;;;;;;5010476;28;20042;-50
2022/07/21 01:05:06;;;;;;;12.50;10.50;;;20.60;99.90;;;;;;5010321;28;20030;-46
2022/07/21 01:07:32;;;;;;;13.88;10.30;;;20.60;99.90;;;;;;5020195;28;20057;-48
2022/07/21 01:09:57;;;;;;;;;;;20.60;99.90;;;;;;5028411;28;20398;-46
2022/07/21 01:12:23;;;;;;;13.48;11.65;;;20.60;99.90;;;;;;5029662;28;19943;-49
2022/07/21 01:14:49;;;;;;;;;;;20.70;99.90;;;;;;5030500;28;20045;-49
2022/07/21 01:17:15;;;;;;;18.40;12.65;;;20.70;99.90;;;;;;5030227;28;19925;-51
2022/07/21 01:19:41;;;;;;;;;;;20.70;99.90;;;;;;5017378;28;20034;-46
2022/07/21 01:22:07;;;;;;;15.77;11.70;;;20.70;99.90;;;;;;5010531;28;19922;-45
2022/07/21 01:24:33;;;;;;;18.98;12.20;;;20.70;99.90;;;;;;5009594;28;20121;-50
2022/07/21 01:26:58;;;;;;;;;;;20.70;99.90;;;;;;5011219;28;20168;-49
2022/07/21 01:29:24;;;;;;;14.05;11.95;;;20.60;99.90;;;;;;5018468;28;19923;-47
2022/07/21 01:31:50;;;;;;;;;;;20.60;99.90;;;;;;5030670;28;20056;-45
2022/07/21 01:34:17;;;;;;;16.80;13.52;;;20.50;99.90;;;;;;5022587;28;19927;-50
2022/07/21 01:36:43;;;;;;;16.98;13.50;;;20.50;99.90;;;;;;5010166;28;20038;-45
2022/07/21 01:41:53;;;;;;;19.80;14.07;;;20.30;99.90;;;;;;5016182;28;19965;-50
2022/07/21 01:44:19;;;;;;;;;;;20.20;99.90;;;;;;5011241;28;20045;-46
2022/07/21 01:46:49;;;;;;;15.23;11.57;;;20.10;99.90;;;;;;5024961;28;19917;-47
2022/07/21 01:49:17;;;;;;;14.82;9.90;;;20.10;99.90;;;;;;5016641;28;20463;-45
2022/07/21 01:51:43;;;;;;;13.65;9.00;;;20.10;99.90;;;;;;5014456;28;20045;-48
2022/07/21 01:54:10;;;;;;;11.07;8.35;;;20.20;99.90;;;;;;5023172;28;20036;-46
2022/07/21 01:56:37;;;;;;;9.68;8.50;;;20.20;99.90;;;;;;5031624;28;20457;-45
2022/07/21 01:59:04;;;;;;;11.85;8.07;;;20.20;99.90;;;;;;5031262;28;20069;-45
2022/07/21 02:01:30;;;;;;;11.10;9.35;;;20.20;99.90;;;;;;5015214;28;20030;-46
2022/07/21 02:04:00;;;;;;;11.75;9.52;;;20.20;99.90;;;;;;5019845;28;20037;-47
2022/07/21 02:06:26;;;;;;;9.40;8.05;;;20.30;99.90;;;;;;5033279;28;20060;-45
2022/07/21 02:08:51;;;;;;;9.98;8.35;;;20.30;99.90;;;;;;5030081;28;20086;-45
2022/07/21 02:11:17;;;;;;;;;;;20.30;99.90;;;;;;5020163;28;20045;-45
2022/07/21 02:13:43;;;;;;;13.02;9.90;;;20.30;99.90;;;;;;5014200;28;19917;-49
2022/07/21 02:16:10;;;;;;;11.32;9.15;;;20.20;99.90;;;;;;5031427;28;20063;-49
2022/07/21 02:18:35;;;;;;;11.30;9.93;;;20.20;99.90;;;;;;5017267;28;20106;-44
2022/07/21 02:21:01;;;;;;;14.30;10.85;;;20.20;99.90;;;;;;5032042;28;20639;-47
2022/07/21 02:23:27;;;;;;;;;;;20.20;99.90;;;;;;5033090;28;20033;-51
2022/07/21 02:25:53;;;;;;;12.85;10.40;;;20.20;99.90;;;;;;5030777;28;19924;-48
2022/07/21 02:28:19;;;;;;;19.85;9.25;;;20.10;99.90;;;;;;5031698;28;20068;-45
2022/07/21 02:30:46;;;;;;;9.90;8.90;;;20.10;99.90;;;;;;5029279;28;20064;-49
2022/07/21 02:33:12;;;;;;;11.13;9.60;;;20.10;99.90;;;;;;5031165;28;20076;-50
2022/07/21 02:35:38;;;;;;;;;;;20.10;99.90;;;;;;5020284;28;20073;-45
2022/07/21 02:38:04;;;;;;;13.98;10.57;;;20.10;99.90;;;;;;5014144;28;19921;-49
2022/07/21 02:40:30;;;;;;;11.93;9.27;;;20.10;99.90;;;;;;5024868;28;20034;-49
2022/07/21 02:42:55;;;;;;;;;;;20.10;99.90;;;;;;5026974;28;20042;-46
2022/07/21 02:45:21;;;;;;;13.40;10.50;;;20.10;99.90;;;;;;5031046;28;20390;-44
2022/07/21 02:47:48;;;;;;;13.27;11.20;;;20.10;99.90;;;;;;5015086;28;20051;-45
2022/07/21 02:50:15;;;;;;;12.75;10.10;;;20.00;99.90;;;;;;5026048;28;20037;-47
2022/07/21 02:52:41;;;;;;;19.65;12.93;;;20.00;99.90;;;;;;5031600;28;20037;-46
2022/07/21 02:55:07;;;;;;;20.45;12.38;;;20.00;99.90;;;;;;5027578;28;20104;-48
2022/07/21 02:57:33;;;;;;;14.43;11.82;;;20.00;99.90;;;;;;5018012;28;20057;-45
2022/07/21 02:59:58;;;;;;;13.82;12.07;;;20.00;99.90;;;;;;5018590;28;20038;-47
2022/07/21 03:02:24;;;;;;;;;;;20.00;99.90;;;;;;5030848;28;20087;-49
2022/07/21 03:04:49;;;;;;;14.00;12.57;;;19.90;99.90;;;;;;5020710;28;20295;-46
2022/07/21 03:07:15;;;;;;;;;;;19.90;99.90;;;;;;5023877;28;20075;-45
2022/07/21 03:09:40;;;;;;;15.85;13.70;;;19.90;99.90;;;;;;5029928;28;20374;-49
2022/07/21 03:12:07;;;;;;;;;;;19.90;99.90;;;;;;5020519;28;20041;-45
2022/07/21 03:14:32;;;;;;;16.55;14.70;;;19.90;99.90;;;;;;5029085;28;19917;-50
2022/07/21 03:17:00;;;;;;;21.05;16.40;;;19.90;99.90;;;;;;5012193;28;20411;-45
2022/07/21 03:19:26;;;;;;;21.95;19.42;;;19.90;99.90;;;;;;5012817;28;20065;-50
2022/07/21 03:21:51;;;;;;;23.40;17.92;;;20.00;99.90;;;;;;5029808;28;20029;-50
2022/07/21 03:24:17;;;;;;;22.08;19.27;;;19.90;99.90;;;;;;5023545;28;20045;-45
2022/07/21 03:26:42;;;;;;;;;;;19.90;99.90;;;;;;5029504;28;20049;-45
2022/07/21 03:29:09;;;;;;;27.58;22.17;;;19.90;99.90;;;;;;5025412;28;19917;-46
2022/07/21 03:31:35;;;;;;;24.52;21.95;;;19.90;99.90;;;;;;5017600;28;20513;-46
2022/07/21 03:34:00;;;;;;;24.52;21.98;;;19.90;99.90;;;;;;5011992;28;20042;-47
2022/07/21 03:36:26;;;;;;;;;;;19.90;99.90;;;;;;5025121;28;20056;-45
2022/07/21 03:38:51;;;;;;;27.40;24.50;;;19.80;99.90;;;;;;5031719;28;19931;-44
2022/07/21 03:41:17;;;;;;;;;;;19.80;99.90;;;;;;5019147;28;20470;-49
2022/07/21 03:43:42;;;;;;;26.55;23.83;;;19.70;99.90;;;;;;5015787;28;19960;-49
2022/07/21 03:46:08;;;;;;;;;;;19.70;99.90;;;;;;5030243;28;20499;-49
2022/07/21 03:48:33;;;;;;;26.13;22.50;;;19.70;99.90;;;;;;5011884;28;19929;-48
2022/07/21 03:50:59;;;;;;;;;;;19.70;99.90;;;;;;5021103;28;20503;-45
2022/07/21 03:53:24;;;;;;;23.52;21.13;;;19.60;99.90;;;;;;5017872;28;20361;-45
2022/07/21 03:55:50;;;;;;;;;;;19.60;99.90;;;;;;5023865;28;20041;-44
2022/07/21 03:58:15;;;;;;;23.77;21.27;;;19.60;99.90;;;;;;5014674;28;19935;-44
2022/07/21 04:00:42;;;;;;;;;;;19.50;99.90;;;;;;5029942;28;20037;-49
2022/07/21 04:03:09;;;;;;;24.58;19.85;;;19.50;99.90;;;;;;5027844;28;20365;-44
2022/07/21 04:05:35;;;;;;;24.38;20.70;;;19.50;99.90;;;;;;5014149;28;20515;-45
2022/07/21 04:08:02;;;;;;;24.55;21.52;;;19.50;99.90;;;;;;5029926;28;20033;-44
2022/07/21 04:10:31;;;;;;;25.67;21.17;;;19.50;99.90;;;;;;5015607;28;20046;-44
2022/07/21 04:12:59;;;;;;;24.08;21.67;;;19.50;99.90;;;;;;5014721;28;20045;-45
2022/07/21 04:15:25;;;;;;;24.08;21.55;;;19.50;99.90;;;;;;5024837;28;20053;-44
2022/07/21 04:17:52;;;;;;;25.38;21.45;;;19.50;99.90;;;;;;5011111;28;20079;-47
2022/07/21 04:20:18;;;;;;;25.92;23.27;;;19.50;99.90;;;;;;5022054;28;20048;-45
2022/07/21 04:22:44;;;;;;;25.75;23.08;;;19.50;99.90;;;;;;5012259;28;20038;-49
2022/07/21 04:25:10;;;;;;;26.30;23.67;;;19.50;99.90;;;;;;5017948;28;20101;-44
2022/07/21 04:27:37;;;;;;;25.83;23.20;;;19.50;99.90;;;;;;5012496;28;20175;-45
2022/07/21 04:30:05;;;;;;;24.48;21.58;;;19.50;99.90;;;;;;5022025;28;20125;-50
2022/07/21 04:32:30;;;;;;;25.17;22.58;;;19.50;99.90;;;;;;5012235;28;20045;-47
2022/07/21 04:34:56;;;;;;;25.48;22.13;;;19.50;99.90;;;;;;5017091;28;20037;-48
2022/07/21 04:37:22;;;;;;;;;;;19.50;99.90;;;;;;5025382;28;20045;-49
2022/07/21 04:39:48;;;;;;;24.58;22.08;;;19.50;99.90;;;;;;5015789;28;20374;-46
2022/07/21 04:42:13;;;;;;;25.30;22.58;;;19.50;99.90;;;;;;5017996;28;20406;-44
2022/07/21 04:44:39;;;;;;;28.08;24.65;;;19.50;99.90;;;;;;5028563;28;20049;-49
2022/07/21 04:47:04;;;;;;;;;;;19.50;99.90;;;;;;5024871;28;20041;-47
2022/07/21 04:49:30;;;;;;;25.92;23.15;;;19.50;99.90;;;;;;5027300;28;19921;-49
2022/07/21 04:51:55;;;;;;;25.08;22.42;;;19.50;99.90;;;;;;5028785;28;20041;-45
2022/07/21 04:54:21;;;;;;;;;;;19.50;99.90;;;;;;5011918;28;20042;-44
2022/07/21 04:56:47;;;;;;;25.52;22.95;;;19.40;99.90;;;;;;5011339;28;19921;-45
2022/07/21 04:59:12;;;;;;;26.50;22.77;;;19.40;99.90;;;;;;5025127;28;20069;-47
2022/07/21 05:01:38;;;;;;;;;;;19.40;99.90;;;;;;5028396;28;20407;-50
2022/07/21 05:04:04;;;;;;;24.23;21.63;;;19.40;99.90;;;;;;5013108;28;20007;-45
2022/07/21 05:06:30;;;;;;;25.00;22.40;;;19.40;99.90;;;;;;5011378;28;20542;-45
2022/07/21 05:08:56;;;;;;;28.17;23.42;;;19.40;99.90;;;;;;5019082;28;20117;-47
2022/07/21 05:11:22;;;;;;;24.42;21.92;;;19.40;99.90;;;;;;5010313;28;20053;-48
2022/07/21 05:13:47;;;;;;;;;;;19.40;99.90;;;;;;5027729;28;20172;-46
2022/07/21 05:16:13;;;;;;;25.05;21.30;;;19.40;99.90;;;;;;5028447;28;20552;-45
2022/07/21 05:18:39;;;;;;;23.58;21.08;;;19.40;99.90;;;;;;5028775;28;20091;-45
2022/07/21 05:21:04;;;;;;;26.63;21.65;;;19.40;99.90;;;;;;5017247;28;20391;-47
2022/07/21 05:23:30;;;;;;;22.80;20.35;;;19.30;99.90;;;;;;5018736;28;20120;-46
2022/07/21 05:25:55;;;;;;;25.27;21.20;;;19.30;99.90;;;;;;5032586;28;20033;-49
2022/07/21 05:28:21;;;;;;;;;;;19.40;99.90;;;;;;5034635;28;20037;-44
2022/07/21 05:30:46;;;;;;;24.13;21.35;;;19.30;99.90;;;;;;5017792;28;19943;-47
2022/07/21 05:33:12;;;;;;;;;;;19.30;99.90;;;;;;5028946;28;20041;-50
2022/07/21 05:35:37;;;;;;;24.83;21.35;;;19.40;99.90;;;;;;5020582;28;19983;-48
2022/07/21 05:38:03;;;;;;;29.30;24.30;;;19.40;99.90;;;;;;5016670;28;20046;-45
2022/07/21 05:40:28;;;;;;;;;;;19.50;99.90;;;;;;5030115;28;20491;-45
2022/07/21 05:42:54;;;;;;;27.75;22.08;;;19.50;99.90;;;;;;5029319;28;19924;-45
2022/07/21 05:45:20;;;;;;;28.02;24.08;;;19.60;99.90;;;;;;5025524;28;20033;-49
2022/07/21 05:47:45;;;;;;;;;;;19.60;99.90;;;;;;5018284;28;20041;-49
2022/07/21 05:50:11;;;;;;;27.20;24.25;;;19.60;99.90;;;;;;5027781;28;20007;-49
2022/07/21 05:52:37;;;;;;;29.48;25.05;;;19.60;99.90;;;;;;5020715;28;20526;-45
2022/07/21 05:55:06;;;;;;;37.05;27.23;;;19.50;99.90;;;;;;5020278;28;20041;-50
2022/07/21 05:57:31;;;;;;;29.98;24.55;;;19.50;99.90;;;;;;5017037;28;20053;-45
2022/07/21 05:59:58;;;;;;;28.77;25.85;;;19.50;99.90;;;;;;5025445;28;20064;-47
2022/07/21 06:02:24;;;;;;;30.95;26.52;;;19.40;99.90;;;;;;5033866;28;20041;-47
2022/07/21 06:04:50;;;;;;;31.95;26.17;;;19.40;99.90;;;;;;5029287;28;20248;-45
2022/07/21 06:07:16;;;;;;;29.20;25.67;;;19.40;99.90;;;;;;5034639;28;20029;-50
2022/07/21 06:09:41;;;;;;;;;;;19.40;99.90;;;;;;5031056;28;20491;-51
2022/07/21 06:12:07;;;;;;;29.35;26.35;;;19.40;99.90;;;;;;5016159;28;20370;-49
2022/07/21 06:14:32;;;;;;;31.30;27.55;;;19.50;99.90;;;;;;5024643;28;20034;-49
2022/07/21 06:16:58;;;;;;;;;;;19.50;99.90;;;;;;5020581;28;20118;-46
2022/07/21 06:19:23;;;;;;;35.67;26.55;;;19.40;99.90;;;;;;5017620;28;20383;-45
2022/07/21 06:21:49;;;;;;;31.02;27.17;;;19.40;99.90;;;;;;5029138;28;20037;-45
2022/07/21 06:24:15;;;;;;;;;;;19.40;99.90;;;;;;5032827;28;20112;-47
2022/07/21 06:26:40;;;;;;;33.65;25.70;;;19.40;99.90;;;;;;5020359;28;20367;-45
2022/07/21 06:29:06;;;;;;;;;;;19.40;99.90;;;;;;5031624;28;20084;-45
2022/07/21 06:31:32;;;;;;;30.67;27.50;;;19.40;99.90;;;;;;5045622;28;19967;-46
2022/07/21 06:33:58;;;;;;;30.17;27.02;;;19.40;99.90;;;;;;5026283;28;20578;-45
2022/07/21 06:36:23;;;;;;;29.98;26.77;;;19.40;99.90;;;;;;5028010;28;20045;-45
2022/07/21 06:38:49;;;;;;;26.33;23.52;;;19.40;99.90;;;;;;5032623;28;20074;-46
2022/07/21 06:41:14;;;;;;;30.42;27.15;;;19.50;99.90;;;;;;5029843;28;20079;-46
2022/07/21 06:43:40;;;;;;;36.83;27.65;;;19.50;99.90;;;;;;5014263;28;20034;-46
2022/07/21 06:46:06;;;;;;;;;;;19.50;99.90;;;;;;5024849;28;20095;-46
2022/07/21 06:48:31;;;;;;;32.17;28.63;;;19.50;99.90;;;;;;5012847;28;19928;-46
2022/07/21 06:50:57;;;;;;;33.30;29.73;;;19.60;99.90;;;;;;5021452;28;20052;-45
2022/07/21 06:53:24;;;;;;;35.22;29.38;;;19.60;99.90;;;;;;5015839;28;20034;-47
2022/07/21 06:55:52;;;;;;;33.28;29.65;;;19.60;99.90;;;;;;5029864;28;20073;-45
2022/07/21 06:58:20;;;;;;;34.85;30.38;;;19.60;99.90;;;;;;5018224;28;20103;-50
2022/07/21 07:00:47;;;;;;;36.20;30.88;;;19.60;99.90;;;;;;5012745;28;20030;-50
2022/07/21 07:03:13;;;;;;;35.22;31.50;;;19.60;99.90;;;;;;5012090;28;20503;-46
2022/07/21 07:05:39;;;;;;;;;;;19.70;99.90;;;;;;5018396;28;20574;-51
2022/07/21 07:08:05;;;;;;;35.38;30.30;;;19.70;99.90;;;;;;5028388;28;19939;-51
2022/07/21 07:10:30;;;;;;;;;;;19.70;99.90;;;;;;5015872;28;20042;-49
2022/07/21 07:12:56;;;;;;;35.60;31.75;;;19.70;99.90;;;;;;5012220;28;19924;-50
2022/07/21 07:15:22;;;;;;;;;;;19.80;99.90;;;;;;5012905;28;20120;-50
2022/07/21 07:17:48;;;;;;;34.78;31.08;;;19.80;99.90;;;;;;5045637;28;20605;-51
2022/07/21 07:20:14;;;;;;;34.63;31.00;;;19.80;99.90;;;;;;5032431;28;20060;-51
2022/07/21 07:22:39;;;;;;;36.50;32.55;;;19.90;99.90;;;;;;5031949;28;20120;-52
2022/07/21 07:25:06;;;;;;;35.80;32.10;;;19.90;99.90;;;;;;5032099;28;20490;-52
2022/07/21 07:27:31;;;;;;;33.42;30.08;;;20.00;99.90;;;;;;5032326;28;20042;-52
2022/07/21 07:29:57;;;;;;;35.47;31.42;;;20.00;99.90;;;;;;5030396;28;20049;-50
2022/07/21 07:32:22;;;;;;;34.90;29.92;;;20.10;99.90;;;;;;5031990;28;20510;-51
2022/07/21 07:34:48;;;;;;;;;;;20.20;99.90;;;;;;5023846;28;20088;-51
2022/07/21 07:37:14;;;;;;;28.40;25.17;;;20.30;99.90;;;;;;5021307;28;19968;-50
2022/07/21 07:39:40;;;;;;;;;;;20.40;99.90;;;;;;5018850;28;20030;-49
2022/07/21 07:42:05;;;;;;;28.70;25.63;;;20.40;99.90;;;;;;5011323;28;19924;-48
2022/07/21 07:44:31;;;;;;;32.15;28.92;;;20.40;99.90;;;;;;5012262;28;20046;-50
2022/07/21 07:46:57;;;;;;;;;;;20.50;99.90;;;;;;5023008;28;20049;-51
2022/07/21 07:49:23;;;;;;;31.52;27.50;;;20.50;99.90;;;;;;5019981;28;19940;-52
2022/07/21 07:51:48;;;;;;;;;;;20.40;99.90;;;;;;5023238;28;20056;-49
2022/07/21 07:54:14;;;;;;;33.05;29.48;;;20.40;99.90;;;;;;5030821;28;20031;-49
2022/07/21 07:56:40;;;;;;;;;;;20.40;99.90;;;;;;5030247;28;20106;-52
2022/07/21 07:59:07;;;;;;;32.75;29.40;;;20.30;99.90;;;;;;5030131;28;19917;-51
2022/07/21 08:01:32;;;;;;;33.70;30.23;;;20.20;99.90;;;;;;5029136;28;20112;-50
2022/07/21 08:03:58;;;;;;;36.33;32.55;;;20.20;99.90;;;;;;5031140;28;20116;-52
2022/07/21 08:06:23;;;;;;;;;;;20.10;99.90;;;;;;5026165;28;20030;-50
2022/07/21 08:08:49;;;;;;;31.27;28.10;;;20.20;99.90;;;;;;5011206;28;19933;-51
2022/07/21 08:11:15;;;;;;;;;;;20.20;99.90;;;;;;5011750;28;20411;-51
2022/07/21 08:13:41;;;;;;;32.42;28.77;;;20.20;99.90;;;;;;5010936;28;19917;-50
2022/07/21 08:16:06;;;;;;;;;;;20.30;99.90;;;;;;5011714;28;20526;-52
2022/07/21 08:18:32;;;;;;;33.05;26.88;;;20.40;99.90;;;;;;5011476;28;19922;-49
2022/07/21 08:20:58;;;;;;;;;;;20.60;99.90;;;;;;5023483;28;20034;-52
2022/07/21 08:23:23;;;;;;;26.80;24.05;;;20.60;99.90;;;;;;5030135;28;19921;-50
2022/07/21 08:25:49;;;;;;;;;;;20.70;99.90;;;;;;5012745;28;20038;-50
2022/07/21 08:28:15;;;;;;;25.95;23.13;;;20.80;99.90;;;;;;5022135;28;19917;-51
2022/07/21 08:30:40;;;;;;;;;;;20.80;99.90;;;;;;5011629;28;20037;-51
2022/07/21 08:33:06;;;;;;;25.25;22.73;;;20.90;99.90;;;;;;5010561;28;19924;-52
2022/07/21 08:35:33;;;;;;;;;;;20.90;99.90;;;;;;5011180;28;20050;-51
2022/07/21 08:38:09;;;;;;;27.60;24.42;;;20.90;99.90;;;;;;5012929;28;19925;-52
2022/07/21 08:40:37;;;;;;;25.38;22.33;;;20.90;99.90;;;;;;5027042;28;20095;-48
2022/07/21 08:43:04;;;;;;;27.08;23.48;;;20.80;99.90;;;;;;5029966;28;20113;-52
2022/07/21 08:45:30;;;;;;;26.92;22.75;;;20.80;99.90;;;;;;5030422;28;20467;-52
2022/07/21 08:47:57;;;;;;;29.65;23.67;;;20.80;99.90;;;;;;5030611;28;20041;-51
2022/07/21 08:50:30;;;;;;;23.70;21.25;;;20.70;99.90;;;;;;5015623;28;20046;-52
2022/07/21 08:52:56;;;;;;;27.30;23.77;;;20.70;99.90;;;;;;5012310;28;20042;-53
2022/07/21 08:55:22;;;;;;;;;;;20.70;99.90;;;;;;5030805;28;20415;-51
2022/07/21 08:57:47;;;;;;;27.60;22.73;;;20.70;99.90;;;;;;5029884;28;20035;-47
2022/07/21 09:00:13;;;;;;;;;;;20.70;99.90;;;;;;5021687;28;20034;-49
2022/07/21 09:02:39;;;;;;;25.95;23.15;;;20.70;99.90;;;;;;5010268;28;20430;-49
2022/07/21 09:05:07;;;;;;;;;;;20.70;99.90;;;;;;5019166;28;20076;-51
2022/07/21 09:07:57;;;;;;;26.90;24.00;;;20.80;99.90;;;;;;5026589;28;20055;-51
2022/07/21 09:10:25;;;;;;;25.80;23.17;;;20.90;99.90;;;;;;5017584;28;20038;-48
2022/07/21 09:12:56;;;;;;;27.42;22.35;;;20.90;99.90;;;;;;5029397;28;20121;-50
2022/07/21 09:15:25;;;;;;;27.10;22.45;;;20.90;99.90;;;;;;5029472;28;20095;-49
2022/07/21 09:18:11;;;;;;;25.52;22.38;;;20.90;99.90;;;;;;5029329;28;20046;-50
2022/07/21 09:20:38;;;;;;;26.87;22.03;;;20.90;99.90;;;;;;5028400;28;20131;-49
2022/07/21 09:23:13;;;;;;;26.52;23.13;;;20.90;99.90;;;;;;5029277;28;20288;-50
2022/07/21 09:25:46;;;;;;;26.42;23.30;;;20.90;99.90;;;;;;5029766;28;20489;-50
2022/07/21 09:28:16;;;;;;;28.17;23.60;;;20.90;99.90;;;;;;5029426;28;20051;-49
2022/07/21 09:31:02;;;;;;;27.77;24.58;;;21.00;99.90;;;;;;5028327;28;20046;-46
2022/07/21 09:33:28;;;;;;;27.17;23.55;;;21.00;99.90;;;;;;5029463;28;20052;-50
2022/07/21 09:35:54;;;;;;;;;;;21.10;99.90;;;;;;5030040;28;20120;-49
2022/07/21 09:38:20;;;;;;;33.15;27.05;;;21.10;99.90;;;;;;5029527;28;19921;-50
2022/07/21 09:40:46;;;;;;;;;;;21.00;99.90;;;;;;5029739;28;20541;-49
2022/07/21 09:43:11;;;;;;;32.53;28.02;;;21.00;99.90;;;;;;5027766;28;20210;-50
2022/07/21 09:45:37;;;;;;;;;;;20.90;99.90;;;;;;5030226;28;20030;-51
2022/07/21 09:48:03;;;;;;;34.92;29.92;;;20.90;99.90;;;;;;5027790;28;19925;-51
2022/07/21 09:50:28;;;;;;;;;;;20.80;99.90;;;;;;5016373;28;20233;-51
2022/07/21 09:52:55;;;;;;;35.53;29.27;;;20.70;99.90;;;;;;5027486;28;19917;-50
2022/07/21 09:55:21;;;;;;;42.50;32.47;;;20.70;99.90;;;;;;5009946;28;20042;-51
2022/07/21 09:57:46;;;;;;;;;;;20.60;99.90;;;;;;5010337;28;20045;-50
2022/07/21 10:00:17;;;;;;;41.83;34.83;;;20.60;99.90;;;;;;5010307;28;19961;-52
2022/07/21 10:02:44;;;;;;;44.47;36.28;;;20.60;99.90;;;;;;5010565;28;20074;-48
2022/07/21 10:05:15;;;;;;;43.65;34.28;;;20.60;99.90;;;;;;5024675;28;20052;-51
2022/07/21 10:07:46;;;;;;;44.45;35.22;;;20.60;99.90;;;;;;5026239;28;20053;-46
2022/07/21 10:10:12;;;;;;;40.40;33.55;;;20.60;99.90;;;;;;5031890;28;20049;-49
2022/07/21 10:12:38;;;;;;;41.92;35.05;;;20.60;99.90;;;;;;5031020;28;20120;-49
2022/07/21 10:15:04;;;;;;;;;;;20.60;99.90;;;;;;5014967;28;20116;-49
2022/07/21 10:17:30;;;;;;;54.05;37.80;;;20.70;99.90;;;;;;5012922;28;19979;-46
2022/07/21 10:20:07;;;;;;;;;;;20.80;99.90;;;;;;5014098;28;20527;-50
2022/07/21 10:22:51;;;;;;;42.40;34.47;;;21.00;99.90;;;;;;5014507;28;19979;-50
2022/07/21 10:25:17;;;;;;;47.30;33.97;;;21.20;99.90;;;;;;5013942;28;20431;-51
2022/07/21 10:28:01;;;;;;;;;;;21.30;99.90;;;;;;5013754;28;20085;-48
2022/07/21 10:30:47;;;;;;;38.85;32.28;;;21.50;99.90;;;;;;5013674;28;19979;-50
2022/07/21 10:33:15;;;;;;;43.17;33.55;;;21.60;99.90;;;;;;5014272;28;20053;-52
2022/07/21 10:35:43;;;;;;;37.75;32.42;;;21.80;99.90;;;;;;5013153;28;20045;-49
2022/07/21 10:38:27;;;;;;;39.17;31.80;;;21.80;99.90;;;;;;5012359;28;20046;-51
2022/07/21 10:40:53;;;;;;;40.40;33.30;;;22.00;99.90;;;;;;5012019;28;20050;-51
2022/07/21 10:43:25;;;;;;;;;;;22.00;99.90;;;;;;5014087;28;20084;-51
2022/07/21 10:45:52;;;;;;;39.70;32.95;;;22.10;99.90;;;;;;5012753;28;19933;-51
2022/07/21 10:48:36;;;;;;;39.30;32.17;;;22.10;99.90;;;;;;5012629;28;20073;-50
2022/07/21 10:51:08;;;;;;;32.72;28.80;;;22.10;99.90;;;;;;5013248;28;20053;-52
2022/07/21 10:53:34;;;;;;;38.08;31.05;;;22.10;99.90;;;;;;5013402;28;20100;-50
2022/07/21 10:55:59;;;;;;;37.63;32.85;;;22.10;99.90;;;;;;5012634;28;20078;-48
2022/07/21 10:58:31;;;;;;;;;;;22.10;99.90;;;;;;5012816;28;20073;-50
2022/07/21 11:01:05;;;;;;;39.40;31.48;;;22.10;99.90;;;;;;5012658;28;20363;-51
2022/07/21 11:03:33;;;;;;;33.80;29.63;;;22.20;99.90;;;;;;5018661;28;20052;-51
2022/07/21 11:06:18;;;;;;;36.70;31.50;;;22.30;99.90;;;;;;5011194;28;20052;-51
2022/07/21 11:08:49;;;;;;;38.47;32.38;;;22.30;99.90;;;;;;5018041;28;20129;-49
2022/07/21 11:11:16;;;;;;;36.30;31.20;;;22.30;99.90;;;;;;5022822;28;20052;-51
2022/07/21 11:14:14;;;;;;;42.42;29.58;;;22.30;99.90;;;;;;5024201;28;20079;-50
2022/07/21 11:16:40;;;;;;;39.78;31.20;;;22.20;99.90;;;;;;5029775;28;20112;-46
2022/07/21 11:19:06;;;;;;;;;;;22.10;99.90;;;;;;5023693;28;20522;-50
2022/07/21 11:21:31;;;;;;;33.42;28.25;;;22.10;99.90;;;;;;5013950;28;19921;-50
2022/07/21 11:23:57;;;;;;;;;;;22.10;99.90;;;;;;5028094;28;20044;-49
2022/07/21 11:26:26;;;;;;;26.90;23.85;;;22.00;99.90;;;;;;5028600;28;19925;-50
2022/07/21 11:29:06;;;;;;;26.90;24.10;;;22.10;99.90;;;;;;5032181;28;20120;-49
2022/07/21 11:31:44;;;;;;;25.20;22.50;;;22.10;99.90;;;;;;5011947;28;20574;-51
2022/07/21 11:34:10;;;;;;;25.88;22.02;;;22.20;99.90;;;;;;5011735;28;20049;-50
2022/07/21 11:36:35;;;;;;;;;;;22.10;99.90;;;;;;5022318;28;20041;-48
2022/07/21 11:39:08;;;;;;;21.40;18.98;;;22.10;99.90;;;;;;5032090;28;20298;-51
2022/07/21 11:41:36;;;;;;;23.75;20.15;;;22.20;99.90;;;;;;5031191;28;20116;-52
2022/07/21 11:44:03;;;;;;;22.27;19.92;;;22.10;99.90;;;;;;5030300;28;20052;-51
2022/07/21 11:46:43;;;;;;;24.63;18.75;;;22.20;99.90;;;;;;5025661;28;20034;-48
2022/07/21 11:49:09;;;;;;;21.40;17.95;;;22.30;99.90;;;;;;5015070;28;20495;-51
2022/07/21 11:51:34;;;;;;;;;;;22.30;99.90;;;;;;5024249;28;20042;-50
2022/07/21 11:54:00;;;;;;;25.00;20.23;;;22.30;99.90;;;;;;5027608;28;20394;-47
2022/07/21 11:56:27;;;;;;;;;;;22.20;99.90;;;;;;5023263;28;20037;-52
2022/07/21 11:59:09;;;;;;;27.38;22.05;;;22.20;99.90;;;;;;5022434;28;19921;-51
2022/07/21 12:01:55;;;;;;;30.38;20.48;;;22.20;99.90;;;;;;5011505;28;20038;-50
2022/07/21 12:04:39;;;;;;;25.03;19.50;;;22.30;99.90;;;;;;5028547;28;20029;-50
2022/07/21 12:07:11;;;;;;;22.35;18.70;;;22.30;99.90;;;;;;5024090;28;20033;-50
2022/07/21 12:09:37;;;;;;;24.63;18.80;;;22.30;99.90;;;;;;5017196;28;20049;-51
2022/07/21 12:12:03;;;;;;;30.58;21.40;;;22.30;99.90;;;;;;5030792;28;20071;-51
2022/07/21 12:14:50;;;;;;;26.48;21.15;;;22.30;99.90;;;;;;5013194;28;20383;-48
2022/07/21 12:17:17;;;;;;;30.60;22.77;;;22.30;99.90;;;;;;5019865;28;20091;-49
2022/07/21 12:19:45;;;;;;;30.52;23.88;;;22.20;99.90;;;;;;5013496;28;20072;-51
2022/07/21 12:22:12;;;;;;;32.28;24.05;;;22.20;99.90;;;;;;5011288;28;20069;-52
2022/07/21 12:24:52;;;;;;;34.58;25.77;;;22.10;99.90;;;;;;5022818;28;20052;-51
2022/07/21 12:27:18;;;;;;;27.67;23.10;;;22.10;99.90;;;;;;5029795;28;20065;-51
2022/07/21 12:29:44;;;;;;;31.10;23.33;;;22.10;99.90;;;;;;5028321;28;20068;-50
2022/07/21 12:32:09;;;;;;;;;;;22.20;99.90;;;;;;5029361;28;20128;-49
2022/07/21 12:34:49;;;;;;;28.55;23.67;;;22.20;99.90;;;;;;5019742;28;19960;-48
2022/07/21 12:37:15;;;;;;;30.17;24.45;;;22.30;99.90;;;;;;5013374;28;20049;-46
2022/07/21 12:39:55;;;;;;;;;;;22.10;99.90;;;;;;5019839;28;20165;-52
2022/07/21 12:42:31;;;;;;;25.88;22.30;;;22.00;99.90;;;;;;5025332;28;20017;-52
2022/07/21 12:44:58;;;;;;;28.20;24.02;;;21.80;99.90;;;;;;5017078;28;20033;-46
2022/07/21 12:47:23;;;;;;;27.40;21.33;;;21.70;99.90;;;;;;5009332;28;20049;-48
2022/07/21 12:49:56;;;;;;;;;;;21.60;99.90;;;;;;5020529;28;20060;-50
2022/07/21 12:52:24;;;;;;;27.02;21.90;;;21.50;99.90;;;;;;5018501;28;20003;-51
2022/07/21 12:54:49;;;;;;;27.50;22.67;;;21.40;99.90;;;;;;5019908;28;20037;-50
2022/07/21 12:57:15;;;;;;;;;;;21.30;99.90;;;;;;5029886;28;20045;-49